Time;durP1;ratioP1;P1;durP2;ratioP2;P2;SDS_P1;SDS_P2;PMS_P1;PMS_P2;Temp;Humidity;BMP_temperature;BMP_pressure;BME280_temperature;BME280_humidity;BME280_pressure;Samples;Min_cycle;Max_cycle;Signal;HPM_P1;HPM_P2
2023/09/09 00:01:30;;;;;;;17.40;16.00;;;17.30;78.80;;;;;;5012449;28;20707;-89
2023/09/09 00:03:58;;;;;;;16.88;15.23;;;17.20;79.00;;;;;;5012585;28;20170;-88
2023/09/09 00:06:24;;;;;;;20.95;15.98;;;17.20;79.20;;;;;;5012592;28;20593;-89
2023/09/09 00:08:50;;;;;;;20.40;18.65;;;17.20;79.30;;;;;;5013932;28;20251;-89
2023/09/09 00:11:15;;;;;;;29.27;26.60;;;17.10;79.30;;;;;;5012450;28;20189;-88
2023/09/09 00:13:41;;;;;;;33.33;30.83;;;17.10;79.30;;;;;;5013981;28;20180;-89
2023/09/09 00:16:06;;;;;;;18.10;16.27;;;17.00;79.40;;;;;;5013201;28;20185;-88
2023/09/09 00:18:33;;;;;;;19.67;17.65;;;17.00;79.40;;;;;;5013436;28;20198;-88
2023/09/09 00:21:00;;;;;;;18.80;16.67;;;17.00;79.50;;;;;;5013394;28;20192;-88
2023/09/09 00:23:25;;;;;;;19.75;16.67;;;17.00;79.50;;;;;;5012434;28;20178;-88
2023/09/09 00:25:51;;;;;;;18.40;16.80;;;17.00;79.50;;;;;;5012254;28;20739;-88
2023/09/09 00:28:16;;;;;;;18.50;16.90;;;17.00;79.50;;;;;;5012252;28;20173;-88
2023/09/09 00:30:42;;;;;;;19.23;17.23;;;16.90;79.60;;;;;;5013342;28;20189;-88
2023/09/09 00:33:08;;;;;;;20.55;18.50;;;17.00;79.50;;;;;;5012118;28;20181;-88
2023/09/09 00:35:37;;;;;;;21.15;19.25;;;16.90;79.70;;;;;;5012193;28;20181;-89
2023/09/09 00:38:03;;;;;;;18.90;17.02;;;16.90;80.00;;;;;;5013250;28;20616;-88
2023/09/09 00:40:28;;;;;;;20.33;17.90;;;16.90;80.40;;;;;;5013599;28;20193;-89
2023/09/09 00:42:54;;;;;;;18.92;17.08;;;16.90;80.40;;;;;;5013137;28;20647;-89
2023/09/09 00:45:19;;;;;;;20.35;17.45;;;16.90;80.40;;;;;;5012317;28;20181;-89
2023/09/09 00:47:45;;;;;;;19.40;17.50;;;16.80;80.40;;;;;;5013718;28;20224;-89
2023/09/09 00:50:13;;;;;;;19.13;17.13;;;16.80;80.40;;;;;;5016162;28;20209;-86
2023/09/09 00:52:40;;;;;;;18.65;16.55;;;16.80;80.40;;;;;;5016035;28;20174;-86
2023/09/09 00:55:11;;;;;;;19.48;17.45;;;16.80;80.40;;;;;;5015877;28;20181;-86
2023/09/09 00:57:37;;;;;;;19.55;17.52;;;16.70;80.30;;;;;;5016986;28;20610;-87
2023/09/09 01:00:09;;;;;;;19.05;17.17;;;16.70;80.30;;;;;;5015607;28;20177;-87
2023/09/09 01:02:38;;;;;;;20.30;18.17;;;16.70;80.30;;;;;;5015807;28;20276;-86
2023/09/09 01:05:05;;;;;;;20.20;18.40;;;16.70;80.30;;;;;;5016839;28;20176;-86
2023/09/09 01:07:49;;;;;;;19.77;17.80;;;16.70;80.40;;;;;;5016867;28;20265;-86
2023/09/09 01:10:16;;;;;;;20.08;18.27;;;16.60;80.40;;;;;;5015623;28;20184;-86
2023/09/09 01:12:43;;;;;;;18.50;16.83;;;16.60;80.60;;;;;;5016769;28;20691;-88
2023/09/09 01:15:11;;;;;;;19.17;17.27;;;16.60;80.60;;;;;;5015793;28;20215;-88
2023/09/09 01:17:37;;;;;;;19.23;17.42;;;16.60;80.70;;;;;;5016726;28;20197;-87
2023/09/09 01:20:14;;;;;;;19.17;17.35;;;16.50;80.90;;;;;;5016499;28;20248;-88
2023/09/09 01:22:41;;;;;;;18.95;17.20;;;16.50;80.90;;;;;;5015458;28;20169;-87
2023/09/09 01:25:07;;;;;;;17.95;16.20;;;16.50;81.00;;;;;;5016535;28;20180;-87
2023/09/09 01:27:33;;;;;;;23.52;17.20;;;16.40;81.00;;;;;;5016654;28;20252;-88
2023/09/09 01:29:59;;;;;;;19.08;17.33;;;16.40;81.10;;;;;;5016869;28;20265;-88
2023/09/09 01:32:25;;;;;;;19.77;17.10;;;16.30;81.10;;;;;;5016369;28;20189;-88
2023/09/09 01:34:51;;;;;;;19.65;17.67;;;16.30;81.20;;;;;;5016349;28;20173;-87
2023/09/09 01:37:16;;;;;;;19.50;17.10;;;16.30;81.40;;;;;;5016378;28;20173;-88
2023/09/09 01:39:42;;;;;;;18.70;16.25;;;16.30;81.50;;;;;;5015082;28;20184;-87
2023/09/09 01:42:08;;;;;;;16.98;15.13;;;16.30;81.50;;;;;;5016188;28;20193;-88
2023/09/09 01:44:33;;;;;;;20.10;16.40;;;16.30;81.50;;;;;;5016499;28;20208;-88
2023/09/09 01:46:59;;;;;;;17.80;16.05;;;16.30;81.60;;;;;;5016523;28;20224;-88
2023/09/09 01:49:24;;;;;;;18.77;15.65;;;16.20;81.70;;;;;;5016381;28;20213;-88
2023/09/09 01:51:50;;;;;;;17.27;15.50;;;16.20;81.80;;;;;;5016052;28;20231;-88
2023/09/09 01:54:15;;;;;;;16.25;14.75;;;16.20;81.90;;;;;;5016079;28;20192;-88
2023/09/09 01:56:41;;;;;;;15.77;14.27;;;16.20;82.00;;;;;;5014717;28;20182;-88
2023/09/09 01:59:06;;;;;;;19.30;15.35;;;16.20;82.00;;;;;;5014808;28;20205;-88
2023/09/09 02:01:32;;;;;;;16.73;15.10;;;16.10;82.00;;;;;;5015832;28;20212;-88
2023/09/09 02:03:57;;;;;;;16.58;14.88;;;16.10;82.00;;;;;;5014727;28;20645;-88
2023/09/09 02:06:23;;;;;;;16.00;14.52;;;16.00;82.00;;;;;;5014530;28;20260;-88
2023/09/09 02:08:48;;;;;;;18.23;14.88;;;16.00;82.00;;;;;;5015798;28;20248;-88
2023/09/09 02:11:14;;;;;;;16.23;14.05;;;16.00;82.00;;;;;;5015692;28;20208;-88
2023/09/09 02:13:39;;;;;;;19.45;15.55;;;16.00;81.90;;;;;;5015688;28;20169;-88
2023/09/09 02:16:06;;;;;;;18.63;15.30;;;16.00;81.90;;;;;;5014329;28;20178;-88
2023/09/09 02:18:31;;;;;;;16.83;15.23;;;15.90;81.80;;;;;;5014304;28;20240;-87
2023/09/09 02:20:58;;;;;;;16.83;15.00;;;15.90;81.70;;;;;;5014189;28;20193;-88
2023/09/09 02:23:24;;;;;;;16.65;15.02;;;15.90;81.70;;;;;;5014305;28;20197;-88
2023/09/09 02:25:49;;;;;;;16.45;14.45;;;15.80;81.60;;;;;;5014290;28;20572;-88
2023/09/09 02:28:15;;;;;;;17.40;15.13;;;15.80;81.60;;;;;;5014120;28;20216;-87
2023/09/09 02:30:43;;;;;;;17.02;15.52;;;15.80;81.70;;;;;;5014051;28;20231;-88
2023/09/09 02:33:09;;;;;;;21.45;15.13;;;15.70;81.90;;;;;;5014013;28;20231;-88
2023/09/09 02:35:34;;;;;;;22.65;14.90;;;15.70;81.90;;;;;;5014055;28;20174;-88
2023/09/09 02:38:00;;;;;;;17.23;15.27;;;15.70;81.90;;;;;;5015121;28;20758;-88
2023/09/09 02:40:25;;;;;;;16.25;14.55;;;15.70;81.90;;;;;;5013868;28;20193;-88
2023/09/09 02:42:51;;;;;;;19.88;14.60;;;15.60;81.90;;;;;;5013871;28;20170;-88
2023/09/09 02:45:16;;;;;;;15.75;13.82;;;15.60;81.90;;;;;;5015075;28;20174;-88
2023/09/09 02:47:42;;;;;;;20.58;14.95;;;15.60;81.90;;;;;;5014886;28;20177;-88
2023/09/09 02:50:08;;;;;;;18.55;14.75;;;15.60;81.80;;;;;;5013605;28;20178;-87
2023/09/09 02:52:33;;;;;;;15.35;13.88;;;15.60;81.80;;;;;;5014916;28;20224;-88
2023/09/09 02:54:59;;;;;;;17.67;15.98;;;15.50;81.70;;;;;;5014876;28;20177;-88
2023/09/09 02:57:25;;;;;;;17.30;15.48;;;15.50;81.90;;;;;;5013472;28;20177;-87
2023/09/09 02:59:50;;;;;;;16.38;14.60;;;15.50;82.10;;;;;;5013515;28;20264;-88
2023/09/09 03:02:16;;;;;;;16.63;14.85;;;15.50;82.20;;;;;;5014673;28;20291;-88
2023/09/09 03:04:42;;;;;;;16.13;14.48;;;15.50;82.30;;;;;;5014688;28;20177;-88
2023/09/09 03:07:07;;;;;;;16.05;14.35;;;15.50;82.40;;;;;;5013398;28;20556;-88
2023/09/09 03:09:33;;;;;;;16.00;14.30;;;15.50;82.50;;;;;;5014810;28;20188;-88
2023/09/09 03:12:01;;;;;;;15.55;13.75;;;15.50;82.50;;;;;;5014130;28;20201;-88
2023/09/09 03:14:26;;;;;;;15.30;13.75;;;15.50;82.60;;;;;;5013464;28;20188;-88
2023/09/09 03:16:52;;;;;;;15.43;13.85;;;15.40;82.60;;;;;;5014718;28;20181;-88
2023/09/09 03:19:17;;;;;;;16.60;14.95;;;15.40;82.60;;;;;;5014425;28;20201;-88
2023/09/09 03:21:43;;;;;;;15.65;14.05;;;15.40;82.60;;;;;;5014276;28;20551;-88
2023/09/09 03:24:08;;;;;;;16.35;14.75;;;15.30;82.70;;;;;;5014430;28;20177;-88
2023/09/09 03:26:34;;;;;;;16.00;14.40;;;15.30;82.70;;;;;;5013094;28;20239;-88
2023/09/09 03:28:59;;;;;;;15.50;14.15;;;15.30;82.70;;;;;;5014574;28;20201;-88
2023/09/09 03:31:25;;;;;;;16.00;14.27;;;15.30;82.70;;;;;;5012974;28;20197;-88
2023/09/09 03:33:51;;;;;;;15.68;14.27;;;15.30;82.70;;;;;;5012951;28;20184;-88
2023/09/09 03:36:16;;;;;;;14.65;13.35;;;15.30;82.80;;;;;;5014464;28;20209;-88
2023/09/09 03:38:42;;;;;;;16.65;14.18;;;15.30;82.80;;;;;;5014036;28;20243;-88
2023/09/09 03:41:07;;;;;;;16.77;15.07;;;15.30;82.80;;;;;;5012748;28;20308;-88
2023/09/09 03:43:37;;;;;;;16.88;15.13;;;15.20;82.80;;;;;;5012807;28;20212;-88
2023/09/09 03:46:03;;;;;;;17.50;15.80;;;15.20;82.90;;;;;;5012766;28;20173;-88
2023/09/09 03:48:28;;;;;;;17.20;15.40;;;15.20;82.80;;;;;;5014030;28;20268;-88
2023/09/09 03:50:59;;;;;;;17.02;14.90;;;15.20;82.80;;;;;;5013887;28;20252;-88
2023/09/09 03:53:24;;;;;;;18.15;14.50;;;15.10;82.80;;;;;;5012680;28;20216;-88
2023/09/09 03:55:50;;;;;;;17.05;15.15;;;15.20;82.80;;;;;;5013814;28;20177;-88
2023/09/09 03:58:15;;;;;;;15.50;13.27;;;15.10;82.70;;;;;;5012442;28;20208;-88
2023/09/09 04:00:41;;;;;;;25.10;23.10;;;15.10;82.80;;;;;;5013551;28;20227;-87
2023/09/09 04:03:06;;;;;;;28.43;26.07;;;15.00;82.80;;;;;;5012585;28;20256;-88
2023/09/09 04:05:32;;;;;;;26.23;24.38;;;15.00;82.90;;;;;;5013664;28;20248;-88
2023/09/09 04:07:58;;;;;;;15.40;13.87;;;15.00;82.80;;;;;;5013677;28;20177;-88
2023/09/09 04:10:24;;;;;;;15.50;13.65;;;15.00;82.70;;;;;;5012393;28;20622;-88
2023/09/09 04:12:49;;;;;;;26.13;23.92;;;15.00;82.70;;;;;;5013572;28;20169;-88
2023/09/09 04:15:15;;;;;;;27.48;25.05;;;15.00;82.70;;;;;;5013551;28;20205;-88
2023/09/09 04:17:40;;;;;;;17.65;15.90;;;15.00;82.70;;;;;;5012228;28;20205;-88
2023/09/09 04:20:08;;;;;;;14.77;13.25;;;15.00;82.70;;;;;;5012163;28;20169;-87
2023/09/09 04:22:34;;;;;;;16.13;13.48;;;14.90;82.70;;;;;;5011456;28;20201;-88
2023/09/09 04:25:00;;;;;;;14.97;13.50;;;14.90;82.80;;;;;;5013722;28;20629;-88
2023/09/09 04:27:26;;;;;;;15.80;13.32;;;14.90;82.80;;;;;;5012089;28;20202;-88
2023/09/09 04:29:51;;;;;;;15.70;13.55;;;14.90;82.90;;;;;;5012090;28;20211;-88
2023/09/09 04:32:17;;;;;;;15.75;14.35;;;14.90;82.90;;;;;;5013396;28;20216;-88
2023/09/09 04:34:42;;;;;;;15.35;13.75;;;14.90;83.00;;;;;;5012168;28;20169;-87
2023/09/09 04:37:08;;;;;;;15.45;13.85;;;14.90;83.10;;;;;;5012167;28;20180;-88
2023/09/09 04:39:33;;;;;;;17.08;15.13;;;14.90;83.20;;;;;;5011978;28;20235;-88
2023/09/09 04:41:59;;;;;;;16.73;15.03;;;14.90;83.40;;;;;;5012073;28;20284;-88
2023/09/09 04:44:24;;;;;;;19.83;15.60;;;14.90;83.60;;;;;;5013428;28;20233;-88
2023/09/09 04:46:50;;;;;;;15.20;13.57;;;14.90;83.90;;;;;;5013598;28;20211;-88
2023/09/09 04:49:17;;;;;;;15.30;13.80;;;15.00;84.00;;;;;;5013307;28;20652;-88
2023/09/09 04:51:43;;;;;;;17.02;14.65;;;14.90;84.10;;;;;;5013334;28;20178;-88
2023/09/09 04:54:09;;;;;;;15.30;13.73;;;14.90;84.30;;;;;;5011922;28;20264;-88
2023/09/09 04:56:34;;;;;;;17.33;13.90;;;14.90;84.50;;;;;;5013142;28;20208;-87
2023/09/09 04:59:00;;;;;;;15.30;13.80;;;14.90;84.70;;;;;;5013259;28;20200;-88
2023/09/09 05:01:25;;;;;;;16.33;13.52;;;14.90;84.70;;;;;;5012943;28;20308;-88
2023/09/09 05:03:51;;;;;;;19.42;15.85;;;14.90;84.80;;;;;;5013338;28;20245;-88
2023/09/09 05:06:16;;;;;;;15.93;14.43;;;14.90;84.90;;;;;;5013375;28;20170;-88
2023/09/09 05:08:42;;;;;;;19.33;15.65;;;14.90;84.90;;;;;;5013056;28;20181;-88
2023/09/09 05:11:07;;;;;;;18.52;13.68;;;14.90;84.80;;;;;;5013146;28;20194;-87
2023/09/09 05:13:33;;;;;;;16.40;13.65;;;14.90;84.90;;;;;;5011875;28;20173;-88
2023/09/09 05:15:58;;;;;;;14.23;12.73;;;14.90;84.80;;;;;;5011802;28;20187;-87
2023/09/09 05:18:24;;;;;;;14.18;12.77;;;15.00;85.00;;;;;;5012884;28;20567;-88
2023/09/09 05:20:49;;;;;;;13.93;12.65;;;15.10;84.90;;;;;;5012902;28;20190;-87
2023/09/09 05:23:15;;;;;;;17.27;13.60;;;15.10;84.90;;;;;;5012945;28;20178;-87
2023/09/09 05:25:40;;;;;;;14.23;12.73;;;15.10;84.90;;;;;;5012926;28;20243;-88
2023/09/09 05:28:06;;;;;;;13.32;12.02;;;15.10;84.90;;;;;;5013136;28;20197;-88
2023/09/09 05:30:31;;;;;;;16.63;12.60;;;15.20;85.00;;;;;;5011438;28;20217;-87
2023/09/09 05:32:57;;;;;;;13.77;12.48;;;15.20;84.90;;;;;;5011769;28;20269;-88
2023/09/09 05:35:22;;;;;;;13.60;11.70;;;15.20;84.90;;;;;;5016381;28;20169;-88
2023/09/09 05:37:48;;;;;;;14.23;12.57;;;15.20;84.80;;;;;;5015371;28;20320;-87
2023/09/09 05:40:13;;;;;;;15.50;12.52;;;15.20;84.80;;;;;;5016141;28;20174;-87
2023/09/09 05:42:39;;;;;;;13.07;11.55;;;15.20;84.80;;;;;;5016605;28;20180;-88
2023/09/09 05:45:08;;;;;;;14.50;13.10;;;15.20;84.80;;;;;;5016553;28;20533;-87
2023/09/09 05:47:34;;;;;;;14.07;12.82;;;15.20;84.90;;;;;;5016537;28;20161;-87
2023/09/09 05:49:59;;;;;;;14.13;12.60;;;15.20;85.00;;;;;;5014945;28;20227;-87
2023/09/09 05:52:25;;;;;;;14.82;12.90;;;15.20;84.90;;;;;;5016602;28;20193;-88
2023/09/09 05:54:50;;;;;;;15.30;13.70;;;15.20;84.90;;;;;;5016345;28;20173;-88
2023/09/09 05:57:16;;;;;;;18.23;14.97;;;15.20;85.00;;;;;;5014785;28;20783;-87
2023/09/09 05:59:41;;;;;;;16.70;14.98;;;15.20;85.00;;;;;;5015875;28;20205;-88
2023/09/09 06:02:07;;;;;;;16.38;14.65;;;15.20;85.30;;;;;;5015753;28;20300;-87
2023/09/09 06:04:32;;;;;;;16.92;14.77;;;15.20;85.60;;;;;;5015827;28;20170;-88
2023/09/09 06:06:58;;;;;;;16.17;14.50;;;15.20;85.70;;;;;;5015822;28;20174;-88
2023/09/09 06:09:24;;;;;;;15.80;14.07;;;15.20;86.00;;;;;;5015863;28;20181;-88
2023/09/09 06:11:50;;;;;;;22.83;20.73;;;15.30;86.10;;;;;;5014523;28;20217;-88
2023/09/09 06:14:16;;;;;;;25.15;22.88;;;15.30;86.10;;;;;;5015707;28;20256;-88
2023/09/09 06:16:41;;;;;;;17.98;14.70;;;15.40;86.20;;;;;;5014430;28;20264;-88
2023/09/09 06:19:07;;;;;;;19.90;15.98;;;15.40;86.30;;;;;;5015483;28;20197;-88
2023/09/09 06:21:33;;;;;;;16.75;15.25;;;15.40;86.20;;;;;;5015529;28;20193;-88
2023/09/09 06:23:58;;;;;;;22.67;20.73;;;15.50;86.40;;;;;;5015466;28;20173;-88
2023/09/09 06:26:24;;;;;;;24.60;22.50;;;15.70;87.20;;;;;;5014278;28;20274;-88
2023/09/09 06:28:50;;;;;;;17.80;15.52;;;15.70;87.30;;;;;;5014983;28;20226;-88
2023/09/09 06:31:16;;;;;;;19.20;15.52;;;15.80;87.30;;;;;;5014083;28;20550;-88
2023/09/09 06:33:41;;;;;;;17.20;15.53;;;15.80;87.70;;;;;;5015310;28;20235;-88
2023/09/09 06:36:07;;;;;;;19.90;15.43;;;16.00;88.10;;;;;;5015273;28;20178;-88
2023/09/09 06:38:32;;;;;;;18.80;15.63;;;16.20;88.80;;;;;;5013969;28;20288;-88
2023/09/09 06:40:58;;;;;;;17.33;15.15;;;16.40;89.20;;;;;;5015133;28;20197;-88
2023/09/09 06:43:23;;;;;;;25.17;16.60;;;16.40;89.20;;;;;;5015100;28;20182;-88
2023/09/09 06:45:49;;;;;;;21.92;16.40;;;16.50;89.20;;;;;;5013120;28;20189;-88
2023/09/09 06:48:18;;;;;;;17.90;16.00;;;16.60;89.30;;;;;;5015149;28;20740;-88
2023/09/09 06:50:47;;;;;;;27.45;16.60;;;16.70;89.30;;;;;;5013846;28;20197;-88
2023/09/09 06:53:13;;;;;;;18.95;16.20;;;16.80;89.30;;;;;;5014990;28;20173;-88
2023/09/09 06:55:41;;;;;;;22.35;17.30;;;16.90;89.30;;;;;;5014997;28;20596;-88
2023/09/09 06:58:07;;;;;;;19.35;17.27;;;17.00;89.40;;;;;;5014798;28;20201;-88
2023/09/09 07:00:32;;;;;;;20.02;16.17;;;17.20;89.00;;;;;;5013381;28;20197;-88
2023/09/09 07:02:58;;;;;;;19.02;16.10;;;17.20;88.90;;;;;;5015092;28;20177;-88
2023/09/09 07:05:24;;;;;;;20.73;15.95;;;17.20;89.00;;;;;;5013560;28;20177;-88
2023/09/09 07:07:50;;;;;;;17.55;15.50;;;17.30;89.00;;;;;;5014649;28;20182;-88
2023/09/09 07:10:15;;;;;;;17.38;14.60;;;17.40;89.00;;;;;;5014844;28;20649;-87
2023/09/09 07:12:42;;;;;;;17.98;16.08;;;17.50;88.90;;;;;;5014570;28;20551;-87
2023/09/09 07:15:08;;;;;;;17.33;15.00;;;17.60;89.00;;;;;;5013382;28;20205;-89
2023/09/09 07:17:34;;;;;;;22.80;14.80;;;17.70;88.60;;;;;;5013752;28;20184;-89
2023/09/09 07:19:59;;;;;;;19.48;13.68;;;17.80;88.40;;;;;;5013217;28;20173;-88
2023/09/09 07:22:25;;;;;;;19.17;14.60;;;18.00;88.40;;;;;;5014401;28;20272;-89
2023/09/09 07:24:51;;;;;;;14.80;13.30;;;18.00;88.10;;;;;;5014423;28;20173;-88
2023/09/09 07:27:16;;;;;;;;;;;18.30;87.50;;;;;;5014764;28;20657;-88
2023/09/09 07:29:42;;;;;;;17.65;13.00;;;18.40;86.60;;;;;;5013060;28;20396;-88
2023/09/09 07:32:07;;;;;;;21.77;13.10;;;18.50;86.10;;;;;;5014185;28;20267;-88
2023/09/09 07:34:34;;;;;;;14.88;13.18;;;18.70;85.50;;;;;;5014476;28;20715;-88
2023/09/09 07:37:00;;;;;;;21.08;12.40;;;18.80;84.70;;;;;;5014161;28;20539;-88
2023/09/09 07:39:28;;;;;;;18.20;13.25;;;18.80;84.40;;;;;;5014108;28;20196;-88
2023/09/09 07:41:54;;;;;;;15.68;13.88;;;18.90;84.00;;;;;;5014033;28;20209;-88
2023/09/09 07:44:19;;;;;;;18.25;12.93;;;19.00;83.40;;;;;;5014115;28;20280;-88
2023/09/09 07:46:45;;;;;;;14.38;12.90;;;19.10;82.90;;;;;;5013984;28;20181;-88
2023/09/09 07:49:10;;;;;;;14.52;12.13;;;19.30;82.30;;;;;;5012703;28;20177;-88
2023/09/09 07:51:36;;;;;;;17.05;15.45;;;19.40;82.00;;;;;;5013807;28;20193;-88
2023/09/09 07:54:02;;;;;;;21.35;18.65;;;19.50;81.90;;;;;;5012693;28;20184;-88
2023/09/09 07:56:27;;;;;;;21.35;13.05;;;19.60;81.70;;;;;;5012621;28;20184;-88
2023/09/09 07:58:53;;;;;;;12.75;10.90;;;19.60;81.40;;;;;;5013692;28;20621;-89
2023/09/09 08:01:19;;;;;;;12.80;11.48;;;19.70;81.10;;;;;;5013628;28;20228;-88
2023/09/09 08:03:44;;;;;;;14.90;11.30;;;19.80;81.70;;;;;;5012393;28;20173;-88
2023/09/09 08:06:10;;;;;;;15.98;11.85;;;20.00;81.40;;;;;;5013840;28;20195;-87
2023/09/09 08:08:36;;;;;;;13.98;11.73;;;20.00;80.50;;;;;;5013810;28;20319;-87
2023/09/09 08:11:05;;;;;;;13.00;11.80;;;20.20;80.60;;;;;;5013518;28;20212;-87
2023/09/09 08:13:31;;;;;;;16.52;11.10;;;20.20;80.20;;;;;;5013923;28;20181;-89
2023/09/09 08:15:58;;;;;;;13.32;11.55;;;20.40;80.00;;;;;;5013582;28;20173;-89
2023/09/09 08:18:23;;;;;;;13.27;11.48;;;20.40;79.90;;;;;;5012266;28;20228;-88
2023/09/09 08:20:53;;;;;;;15.43;11.65;;;20.50;79.40;;;;;;5012223;28;20239;-88
2023/09/09 08:23:19;;;;;;;19.60;17.80;;;20.70;79.00;;;;;;5013486;28;20232;-88
2023/09/09 08:25:45;;;;;;;13.02;11.38;;;20.80;78.90;;;;;;5012311;28;20575;-89
2023/09/09 08:28:10;;;;;;;15.32;11.70;;;20.90;79.30;;;;;;5012184;28;20538;-88
2023/09/09 08:30:36;;;;;;;12.60;11.40;;;20.90;78.20;;;;;;5012205;28;20251;-89
2023/09/09 08:33:01;;;;;;;13.20;12.00;;;21.10;78.60;;;;;;5012568;28;20176;-89
2023/09/09 08:35:30;;;;;;;12.57;11.20;;;21.20;78.40;;;;;;5012228;28;20181;-89
2023/09/09 08:37:55;;;;;;;11.43;10.32;;;21.30;78.70;;;;;;5012070;28;20614;-89
2023/09/09 08:40:21;;;;;;;12.90;11.65;;;21.40;79.60;;;;;;5012089;28;20261;-89
2023/09/09 08:42:58;;;;;;;12.25;11.05;;;21.60;78.30;;;;;;5012125;28;20201;-89
2023/09/09 08:45:52;;;;;;;16.05;12.38;;;21.60;78.30;;;;;;5012224;28;20174;-89
2023/09/09 08:48:19;;;;;;;20.42;18.63;;;21.70;77.80;;;;;;5012038;28;20710;-88
2023/09/09 08:50:48;;;;;;;23.42;21.48;;;22.00;78.40;;;;;;5012132;28;20220;-89
2023/09/09 08:53:17;;;;;;;21.90;19.88;;;22.00;77.20;;;;;;5013301;28;20631;-89
2023/09/09 08:55:42;;;;;;;;;;;22.20;78.00;;;;;;5013419;28;20220;-89
2023/09/09 08:58:09;;;;;;;15.20;12.80;;;22.30;77.00;;;;;;5013174;28;19988;-89
2023/09/09 09:00:35;;;;;;;;;;;22.40;75.50;;;;;;5013246;28;20276;-89
2023/09/09 09:03:01;;;;;;;20.45;18.73;;;22.70;75.40;;;;;;5012010;28;20178;-89
2023/09/09 09:05:30;;;;;;;28.40;21.30;;;22.80;75.80;;;;;;5013131;28;20173;-89
2023/09/09 09:07:56;;;;;;;15.25;13.85;;;22.90;74.80;;;;;;5012194;28;20232;-89
2023/09/09 09:10:22;;;;;;;18.10;13.70;;;23.00;74.00;;;;;;5016521;28;20180;-90
2023/09/09 09:12:48;;;;;;;15.30;14.10;;;23.20;74.20;;;;;;5016919;28;20184;-89
2023/09/09 09:15:14;;;;;;;17.20;15.43;;;23.20;73.10;;;;;;5015600;28;20181;-89
2023/09/09 09:17:40;;;;;;;14.45;13.18;;;23.30;72.30;;;;;;5015437;28;20177;-89
2023/09/09 09:20:07;;;;;;;20.48;18.70;;;23.50;73.60;;;;;;5015625;28;20177;-88
2023/09/09 09:22:34;;;;;;;18.98;17.02;;;23.70;71.90;;;;;;5017172;28;20220;-89
2023/09/09 09:24:59;;;;;;;18.65;17.23;;;23.70;70.70;;;;;;5016773;28;20180;-89
2023/09/09 09:27:30;;;;;;;18.83;17.33;;;23.90;71.60;;;;;;5015377;28;20533;-90
2023/09/09 09:29:55;;;;;;;19.35;17.60;;;24.00;71.20;;;;;;5016631;28;20200;-90
2023/09/09 09:32:21;;;;;;;19.33;17.77;;;24.20;71.00;;;;;;5015134;28;20193;-89
2023/09/09 09:34:51;;;;;;;19.98;18.23;;;24.20;70.70;;;;;;5015344;28;20205;-89
2023/09/09 09:37:17;;;;;;;20.85;18.98;;;24.40;71.20;;;;;;5015268;28;20158;-90
2023/09/09 09:39:45;;;;;;;19.47;18.07;;;24.50;69.60;;;;;;5016364;28;20193;-89
2023/09/09 09:42:11;;;;;;;22.60;19.60;;;24.70;70.30;;;;;;5015010;28;20402;-90
2023/09/09 09:44:37;;;;;;;20.83;18.92;;;24.70;69.50;;;;;;5016398;28;20261;-89
2023/09/09 09:47:04;;;;;;;21.23;19.25;;;24.80;68.90;;;;;;5015080;28;20178;-90
2023/09/09 09:49:41;;;;;;;20.55;19.08;;;24.90;69.30;;;;;;5015014;28;20182;-89
2023/09/09 09:52:07;;;;;;;20.27;18.38;;;25.10;68.60;;;;;;5016093;28;20676;-89
2023/09/09 09:54:35;;;;;;;21.10;19.00;;;25.30;68.40;;;;;;5014858;28;20181;-90
2023/09/09 09:57:03;;;;;;;21.05;19.00;;;25.30;67.60;;;;;;5015262;28;20177;-90
2023/09/09 09:59:33;;;;;;;19.85;18.25;;;25.50;68.60;;;;;;5014788;28;20201;-90
2023/09/09 10:04:36;;;;;;;19.50;18.05;;;25.80;66.90;;;;;;5034906;28;20506;-91
2023/09/09 10:07:05;;;;;;;21.20;19.02;;;25.70;66.10;;;;;;5034573;28;20226;-92
2023/09/09 10:09:40;;;;;;;21.48;19.63;;;26.00;66.20;;;;;;5035880;28;20181;-91
2023/09/09 10:12:18;;;;;;;21.65;19.42;;;26.10;66.10;;;;;;5034917;28;20234;-91
2023/09/09 10:14:44;;;;;;;22.45;20.55;;;26.20;65.90;;;;;;5034542;28;20552;-91
2023/09/09 10:17:13;;;;;;;21.38;19.70;;;26.20;65.30;;;;;;5035434;28;20212;-91
2023/09/09 10:19:39;;;;;;;21.35;19.20;;;26.20;64.60;;;;;;5034908;28;20220;-91
2023/09/09 10:22:05;;;;;;;21.02;19.20;;;26.40;65.60;;;;;;5034088;28;20260;-91
2023/09/09 10:24:33;;;;;;;20.95;19.08;;;26.70;65.90;;;;;;5035139;28;20204;-91
2023/09/09 10:27:02;;;;;;;22.08;20.27;;;26.80;65.00;;;;;;5035072;28;20218;-91
2023/09/09 10:29:29;;;;;;;21.38;19.65;;;27.00;63.00;;;;;;5035926;28;20177;-91
2023/09/09 10:31:57;;;;;;;21.73;19.88;;;27.00;63.90;;;;;;5034611;28;20184;-91
2023/09/09 10:34:23;;;;;;;22.20;20.30;;;27.00;64.00;;;;;;5034585;28;20188;-92
2023/09/09 10:36:54;;;;;;;22.30;20.20;;;27.20;63.90;;;;;;5034687;28;20247;-91
2023/09/09 10:39:22;;;;;;;22.15;20.35;;;27.10;63.80;;;;;;5034061;28;20303;-91
2023/09/09 10:41:49;;;;;;;23.23;21.00;;;27.40;64.10;;;;;;5033915;28;20176;-90
2023/09/09 10:44:15;;;;;;;21.90;20.10;;;27.40;63.30;;;;;;5034303;28;20204;-90
2023/09/09 10:46:42;;;;;;;22.25;20.65;;;27.50;64.40;;;;;;5034609;28;20179;-90
2023/09/09 10:49:07;;;;;;;23.13;21.33;;;27.60;62.80;;;;;;5034567;28;20176;-90
2023/09/09 10:51:49;;;;;;;23.10;21.10;;;27.80;63.40;;;;;;5033751;28;20176;-90
2023/09/09 10:54:18;;;;;;;22.70;21.08;;;27.80;62.50;;;;;;5033488;28;20201;-90
2023/09/09 10:56:46;;;;;;;22.77;20.67;;;28.20;62.10;;;;;;5033866;28;20192;-90
2023/09/09 10:59:23;;;;;;;23.23;21.33;;;28.00;61.20;;;;;;5033452;28;20201;-91
2023/09/09 11:02:13;;;;;;;22.70;20.38;;;28.30;62.30;;;;;;5034025;28;20204;-90
2023/09/09 11:04:40;;;;;;;22.38;20.58;;;28.30;59.90;;;;;;5034972;28;20639;-90
2023/09/09 11:07:15;;;;;;;21.65;20.15;;;28.40;61.70;;;;;;5034171;28;20271;-90
2023/09/09 11:09:52;;;;;;;22.23;20.38;;;28.50;59.20;;;;;;5033935;28;20654;-91
2023/09/09 11:12:25;;;;;;;22.45;20.13;;;28.30;59.90;;;;;;5033411;28;20231;-92
2023/09/09 11:14:58;;;;;;;21.75;19.77;;;28.60;60.50;;;;;;5033512;28;20574;-92
2023/09/09 11:17:28;;;;;;;21.50;19.80;;;28.70;59.70;;;;;;5033655;28;20187;-92
2023/09/09 11:19:54;;;;;;;21.23;19.48;;;29.10;59.80;;;;;;5033026;28;20239;-92
2023/09/09 11:22:20;;;;;;;20.40;18.45;;;29.00;57.70;;;;;;5033198;28;20606;-92
2023/09/09 11:24:46;;;;;;;26.25;24.13;;;29.10;57.50;;;;;;5033262;28;20169;-92
2023/09/09 11:27:14;;;;;;;25.33;23.52;;;28.90;58.00;;;;;;5033064;28;20331;-91
2023/09/09 11:29:48;;;;;;;27.15;24.88;;;29.20;57.30;;;;;;5033306;28;20176;-92
2023/09/09 11:32:26;;;;;;;21.73;19.92;;;28.90;57.70;;;;;;5032797;28;20221;-91
2023/09/09 11:34:56;;;;;;;21.45;19.48;;;28.90;59.00;;;;;;5032981;28;20643;-91
2023/09/09 11:37:26;;;;;;;21.08;19.33;;;29.10;57.30;;;;;;5032816;28;20180;-90
2023/09/09 11:39:54;;;;;;;19.88;18.45;;;29.10;57.10;;;;;;5032684;28;20264;-91
2023/09/09 11:42:21;;;;;;;21.70;19.65;;;29.40;55.40;;;;;;5032784;28;20251;-91
2023/09/09 11:44:47;;;;;;;20.20;18.80;;;29.30;56.10;;;;;;5032719;28;20172;-91
2023/09/09 11:47:14;;;;;;;20.73;19.13;;;29.20;56.30;;;;;;5033421;28;20176;-90
2023/09/09 11:49:44;;;;;;;21.20;19.17;;;29.20;56.00;;;;;;5032785;28;20614;-91
2023/09/09 11:52:11;;;;;;;20.80;19.13;;;29.20;55.60;;;;;;5032526;28;20787;-91
2023/09/09 11:54:37;;;;;;;20.95;19.30;;;29.20;56.70;;;;;;5034069;28;20177;-92
2023/09/09 11:57:07;;;;;;;20.80;18.98;;;29.30;54.80;;;;;;5032867;28;20670;-91
2023/09/09 11:59:46;;;;;;;20.02;18.60;;;29.50;54.30;;;;;;5033308;28;20205;-90
2023/09/09 12:02:18;;;;;;;21.08;19.30;;;29.70;53.00;;;;;;5032248;28;20177;-90
2023/09/09 12:05:01;;;;;;;20.63;18.83;;;29.90;55.50;;;;;;5032939;28;20165;-90
2023/09/09 12:07:29;;;;;;;19.50;17.85;;;30.00;53.20;;;;;;5032708;28;20251;-91
2023/09/09 12:09:57;;;;;;;19.83;17.85;;;30.20;51.80;;;;;;5032314;28;20272;-90
2023/09/09 12:12:23;;;;;;;20.15;18.45;;;30.20;52.90;;;;;;5032275;28;20273;-90
2023/09/09 12:14:50;;;;;;;20.10;18.40;;;30.50;53.20;;;;;;5032310;28;20177;-90
2023/09/09 12:17:16;;;;;;;20.42;18.95;;;30.80;53.70;;;;;;5033316;28;20180;-90
2023/09/09 12:19:41;;;;;;;21.50;19.25;;;30.50;51.70;;;;;;5032295;28;20208;-90
2023/09/09 12:22:07;;;;;;;20.02;18.52;;;30.20;51.40;;;;;;5032277;28;20172;-90
2023/09/09 12:24:42;;;;;;;20.13;18.42;;;30.30;50.00;;;;;;5032214;28;20180;-90
2023/09/09 12:27:07;;;;;;;19.95;18.55;;;30.30;49.10;;;;;;5032421;28;20168;-90
2023/09/09 12:29:45;;;;;;;19.20;17.60;;;30.40;49.80;;;;;;5032954;28;20650;-90